Troy, OH (45373)

1:11 PM EST on November 28, 2014 (GMT -0500)
Rural | Change Station
CLOSE
Current Station
Personal Weather Station
Location: Troy, OH
Elevation: 854 ft
Nearby Weather Stations

Elev 854 ft 40.01 °N, 84.21 °W | Updated 37 seconds ago

Overcast
Overcast
30.6 °F
Feels Like 31 °F
N
2.0
Wind Variable Wind from NE
Gusts 16.0 mph

Today
High -- | Low -- °F
--% Chance of Precip.
Yesterday
High -- | Low -- °F
Precip. -- in
7:36 AM 5:12 PM
Waxing Crescent, 42% visible
Pressure 30.31 in
Visibility 10.0 miles
Clouds Scattered Clouds 4800 ft
Mostly Cloudy 9500 ft
Overcast 11000 ft
Windchill 31 °F
Dew Point 19 °F
Humidity 61%
Rainfall 0.00 in
Snow Depth Not available.
UV 0.8 out of 12
Pollen .10 out of 12
Air Quality Not available.
Flu Activity Not available.
METAR KDAY 281756Z 19012KT 10SM SCT048 BKN095 OVC110 M01/M07 A3027 RMK AO2 SLP262 BINOVC T10061072 11006 21067 58027

More Conditions Fewer Conditions

Pressure 30.31 in
Visibility 10.0 miles
Clouds Scattered Clouds 4800 ft
Mostly Cloudy 9500 ft
Overcast 11000 ft
Windchill 31 °F
Dew Point 19 °F
Humidity 61%
Rainfall 0.00 in
Snow Depth Not available.
UV 0.8 out of 12
Pollen .10 out of 12
Air Quality Not available.
Flu Activity Not available.
METAR KDAY 281756Z 19012KT 10SM SCT048 BKN095 OVC110 M01/M07 A3027 RMK AO2 SLP262 BINOVC T10061072 11006 21067 58027

More Conditions Fewer Conditions

10-Day Weather Forecast

Almanac

Astronomy

Nov. 28, 2014 Rise Set
Actual Time
Civil Twilight
Nautical Twilight
Astronomical Twilight
Moon
Length of Visible Light
Length of Day
Tomorrow will be .
, % of the Moon is Illuminated

Today's Extremes

State Highs State Lows

Community

WunderPhotos

Upload Photos

1,774,249 photos uploaded!

WunderBlogs® & News

Nearby

Air Quality

  Air Quality AQ Index Pollutant
Not available.

Snow Depth

Station Depth Elevation

Earthquake Activity

City Distance Mag. Time & Date
Minimum magnitude displayed is 2.5.

Coastal Water Temperatures

Place Temperature

Nearby Weather Stations